sensor_id;sensor_type;location;lat;lon;timestamp;P1;durP1;ratioP1;P2;durP2;ratioP2
40621;SDS011;26324;52.040;11.528;2023-07-08T00:00:44;3.50;;;2.22;;
40621;SDS011;26324;52.040;11.528;2023-07-08T00:03:16;2.80;;;2.00;;
40621;SDS011;26324;52.040;11.528;2023-07-08T00:05:45;3.05;;;2.35;;
40621;SDS011;26324;52.040;11.528;2023-07-08T00:08:14;2.78;;;2.10;;
40621;SDS011;26324;52.040;11.528;2023-07-08T00:10:42;3.78;;;2.20;;
40621;SDS011;26324;52.040;11.528;2023-07-08T00:13:10;4.93;;;2.40;;
40621;SDS011;26324;52.040;11.528;2023-07-08T00:15:38;3.40;;;2.25;;
40621;SDS011;26324;52.040;11.528;2023-07-08T00:18:10;3.65;;;2.17;;
40621;SDS011;26324;52.040;11.528;2023-07-08T00:20:44;2.92;;;2.45;;
40621;SDS011;26324;52.040;11.528;2023-07-08T00:23:18;3.33;;;2.30;;
40621;SDS011;26324;52.040;11.528;2023-07-08T00:25:49;4.07;;;2.10;;
40621;SDS011;26324;52.040;11.528;2023-07-08T00:28:18;3.65;;;2.28;;
40621;SDS011;26324;52.040;11.528;2023-07-08T00:30:49;3.17;;;2.15;;
40621;SDS011;26324;52.040;11.528;2023-07-08T00:33:16;3.05;;;2.03;;
40621;SDS011;26324;52.040;11.528;2023-07-08T00:35:44;4.55;;;2.30;;
40621;SDS011;26324;52.040;11.528;2023-07-08T00:38:26;3.97;;;2.20;;
40621;SDS011;26324;52.040;11.528;2023-07-08T00:43:50;3.20;;;2.20;;
40621;SDS011;26324;52.040;11.528;2023-07-08T00:46:31;3.22;;;2.20;;
40621;SDS011;26324;52.040;11.528;2023-07-08T00:51:45;3.47;;;2.28;;
40621;SDS011;26324;52.040;11.528;2023-07-08T00:56:42;3.25;;;2.15;;
40621;SDS011;26324;52.040;11.528;2023-07-08T01:02:02;3.03;;;2.00;;
40621;SDS011;26324;52.040;11.528;2023-07-08T01:04:39;3.05;;;2.45;;
40621;SDS011;26324;52.040;11.528;2023-07-08T01:07:11;3.95;;;2.20;;
40621;SDS011;26324;52.040;11.528;2023-07-08T01:09:40;3.08;;;2.20;;
40621;SDS011;26324;52.040;11.528;2023-07-08T01:12:11;3.35;;;2.60;;
40621;SDS011;26324;52.040;11.528;2023-07-08T01:17:17;3.17;;;2.33;;
40621;SDS011;26324;52.040;11.528;2023-07-08T01:19:46;2.92;;;2.35;;
40621;SDS011;26324;52.040;11.528;2023-07-08T01:22:16;4.53;;;2.28;;
40621;SDS011;26324;52.040;11.528;2023-07-08T01:24:46;2.45;;;2.05;;
40621;SDS011;26324;52.040;11.528;2023-07-08T01:27:21;3.25;;;2.42;;
40621;SDS011;26324;52.040;11.528;2023-07-08T01:29:49;3.25;;;2.25;;
40621;SDS011;26324;52.040;11.528;2023-07-08T01:32:18;4.03;;;2.45;;
40621;SDS011;26324;52.040;11.528;2023-07-08T01:34:46;3.80;;;2.40;;
40621;SDS011;26324;52.040;11.528;2023-07-08T01:37:39;3.20;;;2.38;;
40621;SDS011;26324;52.040;11.528;2023-07-08T01:42:45;3.95;;;2.45;;
40621;SDS011;26324;52.040;11.528;2023-07-08T01:45:13;3.30;;;2.70;;
40621;SDS011;26324;52.040;11.528;2023-07-08T01:47:43;4.15;;;2.55;;
40621;SDS011;26324;52.040;11.528;2023-07-08T01:50:16;4.32;;;2.55;;
40621;SDS011;26324;52.040;11.528;2023-07-08T01:52:45;5.60;;;2.60;;
40621;SDS011;26324;52.040;11.528;2023-07-08T01:55:15;3.60;;;2.70;;
40621;SDS011;26324;52.040;11.528;2023-07-08T01:57:47;3.65;;;2.53;;
40621;SDS011;26324;52.040;11.528;2023-07-08T02:00:15;4.60;;;2.55;;
40621;SDS011;26324;52.040;11.528;2023-07-08T02:02:42;3.30;;;2.72;;
40621;SDS011;26324;52.040;11.528;2023-07-08T02:05:10;5.15;;;2.60;;
40621;SDS011;26324;52.040;11.528;2023-07-08T02:07:37;6.30;;;2.80;;
40621;SDS011;26324;52.040;11.528;2023-07-08T02:10:05;3.63;;;2.80;;
40621;SDS011;26324;52.040;11.528;2023-07-08T02:12:33;3.22;;;2.47;;
40621;SDS011;26324;52.040;11.528;2023-07-08T02:15:00;4.20;;;2.58;;
40621;SDS011;26324;52.040;11.528;2023-07-08T02:17:28;3.67;;;2.80;;
40621;SDS011;26324;52.040;11.528;2023-07-08T02:19:56;5.32;;;2.83;;
40621;SDS011;26324;52.040;11.528;2023-07-08T02:22:23;4.70;;;2.90;;
40621;SDS011;26324;52.040;11.528;2023-07-08T02:24:50;6.55;;;3.00;;
40621;SDS011;26324;52.040;11.528;2023-07-08T02:27:18;4.60;;;2.40;;
40621;SDS011;26324;52.040;11.528;2023-07-08T02:29:46;3.13;;;2.55;;
40621;SDS011;26324;52.040;11.528;2023-07-08T02:32:14;4.32;;;2.75;;
40621;SDS011;26324;52.040;11.528;2023-07-08T02:34:41;5.07;;;2.67;;
40621;SDS011;26324;52.040;11.528;2023-07-08T02:37:10;3.78;;;2.47;;
40621;SDS011;26324;52.040;11.528;2023-07-08T02:39:40;3.00;;;2.42;;
40621;SDS011;26324;52.040;11.528;2023-07-08T02:42:08;5.32;;;2.75;;
40621;SDS011;26324;52.040;11.528;2023-07-08T02:44:36;3.83;;;2.55;;
40621;SDS011;26324;52.040;11.528;2023-07-08T02:47:04;6.53;;;3.25;;
40621;SDS011;26324;52.040;11.528;2023-07-08T02:49:35;3.20;;;2.67;;
40621;SDS011;26324;52.040;11.528;2023-07-08T02:52:02;2.95;;;2.47;;
40621;SDS011;26324;52.040;11.528;2023-07-08T02:54:30;2.90;;;2.33;;
40621;SDS011;26324;52.040;11.528;2023-07-08T02:56:57;4.53;;;2.90;;
40621;SDS011;26324;52.040;11.528;2023-07-08T02:59:25;5.63;;;3.00;;
40621;SDS011;26324;52.040;11.528;2023-07-08T03:01:54;3.90;;;2.30;;
40621;SDS011;26324;52.040;11.528;2023-07-08T03:04:22;3.58;;;2.28;;
40621;SDS011;26324;52.040;11.528;2023-07-08T03:06:52;6.05;;;2.80;;
40621;SDS011;26324;52.040;11.528;2023-07-08T03:09:22;5.28;;;2.67;;
40621;SDS011;26324;52.040;11.528;2023-07-08T03:11:50;4.53;;;2.88;;
40621;SDS011;26324;52.040;11.528;2023-07-08T03:14:17;4.57;;;2.55;;
40621;SDS011;26324;52.040;11.528;2023-07-08T03:16:44;3.20;;;2.47;;
40621;SDS011;26324;52.040;11.528;2023-07-08T03:19:12;6.22;;;3.58;;
40621;SDS011;26324;52.040;11.528;2023-07-08T03:21:42;4.35;;;3.03;;
40621;SDS011;26324;52.040;11.528;2023-07-08T03:24:10;6.68;;;2.92;;
40621;SDS011;26324;52.040;11.528;2023-07-08T03:26:44;3.90;;;2.45;;
40621;SDS011;26324;52.040;11.528;2023-07-08T03:29:16;5.47;;;2.75;;
40621;SDS011;26324;52.040;11.528;2023-07-08T03:31:46;3.05;;;2.33;;
40621;SDS011;26324;52.040;11.528;2023-07-08T03:34:14;4.38;;;3.30;;
40621;SDS011;26324;52.040;11.528;2023-07-08T03:36:43;4.38;;;2.60;;
40621;SDS011;26324;52.040;11.528;2023-07-08T03:39:17;3.38;;;2.63;;
40621;SDS011;26324;52.040;11.528;2023-07-08T03:41:49;4.68;;;2.90;;
40621;SDS011;26324;52.040;11.528;2023-07-08T03:44:18;4.50;;;2.88;;
40621;SDS011;26324;52.040;11.528;2023-07-08T03:46:47;4.13;;;2.95;;
40621;SDS011;26324;52.040;11.528;2023-07-08T03:49:18;5.95;;;3.33;;
40621;SDS011;26324;52.040;11.528;2023-07-08T03:51:49;5.30;;;3.28;;
40621;SDS011;26324;52.040;11.528;2023-07-08T03:54:21;4.90;;;3.13;;
40621;SDS011;26324;52.040;11.528;2023-07-08T03:56:54;4.63;;;3.15;;
40621;SDS011;26324;52.040;11.528;2023-07-08T03:59:24;4.63;;;3.33;;
40621;SDS011;26324;52.040;11.528;2023-07-08T04:01:53;3.97;;;2.92;;
40621;SDS011;26324;52.040;11.528;2023-07-08T04:04:21;6.53;;;3.55;;
40621;SDS011;26324;52.040;11.528;2023-07-08T04:06:48;5.25;;;3.28;;
40621;SDS011;26324;52.040;11.528;2023-07-08T04:09:17;6.18;;;3.40;;
40621;SDS011;26324;52.040;11.528;2023-07-08T04:11:44;3.78;;;3.38;;
40621;SDS011;26324;52.040;11.528;2023-07-08T04:14:11;4.57;;;3.70;;
40621;SDS011;26324;52.040;11.528;2023-07-08T04:19:13;3.50;;;3.03;;
40621;SDS011;26324;52.040;11.528;2023-07-08T04:21:42;5.65;;;3.67;;
40621;SDS011;26324;52.040;11.528;2023-07-08T04:24:11;5.70;;;3.60;;
40621;SDS011;26324;52.040;11.528;2023-07-08T04:26:40;5.65;;;3.35;;
40621;SDS011;26324;52.040;11.528;2023-07-08T04:29:12;4.32;;;3.15;;
40621;SDS011;26324;52.040;11.528;2023-07-08T04:31:43;3.80;;;2.63;;
40621;SDS011;26324;52.040;11.528;2023-07-08T04:34:10;4.35;;;2.92;;
40621;SDS011;26324;52.040;11.528;2023-07-08T04:36:38;4.65;;;3.25;;
40621;SDS011;26324;52.040;11.528;2023-07-08T04:39:05;4.28;;;3.13;;
40621;SDS011;26324;52.040;11.528;2023-07-08T04:41:37;5.20;;;3.40;;
40621;SDS011;26324;52.040;11.528;2023-07-08T04:44:08;5.88;;;3.72;;
40621;SDS011;26324;52.040;11.528;2023-07-08T04:46:46;4.68;;;3.67;;
40621;SDS011;26324;52.040;11.528;2023-07-08T04:49:18;6.40;;;3.38;;
40621;SDS011;26324;52.040;11.528;2023-07-08T04:51:46;5.25;;;3.35;;
40621;SDS011;26324;52.040;11.528;2023-07-08T04:54:13;6.43;;;3.83;;
40621;SDS011;26324;52.040;11.528;2023-07-08T04:56:42;4.60;;;3.55;;
40621;SDS011;26324;52.040;11.528;2023-07-08T04:59:14;4.30;;;3.72;;
40621;SDS011;26324;52.040;11.528;2023-07-08T05:01:46;6.65;;;4.32;;
40621;SDS011;26324;52.040;11.528;2023-07-08T05:04:17;6.22;;;3.97;;
40621;SDS011;26324;52.040;11.528;2023-07-08T05:06:46;5.03;;;3.72;;
40621;SDS011;26324;52.040;11.528;2023-07-08T05:09:13;3.97;;;3.58;;
40621;SDS011;26324;52.040;11.528;2023-07-08T05:11:43;5.82;;;3.85;;
40621;SDS011;26324;52.040;11.528;2023-07-08T05:14:11;5.32;;;3.60;;
40621;SDS011;26324;52.040;11.528;2023-07-08T05:16:39;4.50;;;3.85;;
40621;SDS011;26324;52.040;11.528;2023-07-08T05:19:07;5.40;;;3.50;;
40621;SDS011;26324;52.040;11.528;2023-07-08T05:21:35;4.50;;;3.53;;
40621;SDS011;26324;52.040;11.528;2023-07-08T05:24:03;4.43;;;3.60;;
40621;SDS011;26324;52.040;11.528;2023-07-08T05:26:32;4.13;;;3.42;;
40621;SDS011;26324;52.040;11.528;2023-07-08T05:28:59;6.18;;;4.13;;
40621;SDS011;26324;52.040;11.528;2023-07-08T05:31:27;5.70;;;3.55;;
40621;SDS011;26324;52.040;11.528;2023-07-08T05:34:13;4.78;;;4.28;;
40621;SDS011;26324;52.040;11.528;2023-07-08T05:36:42;4.43;;;3.55;;
40621;SDS011;26324;52.040;11.528;2023-07-08T05:39:10;3.40;;;3.00;;
40621;SDS011;26324;52.040;11.528;2023-07-08T05:41:37;4.47;;;3.78;;
40621;SDS011;26324;52.040;11.528;2023-07-08T05:44:05;5.38;;;3.50;;
40621;SDS011;26324;52.040;11.528;2023-07-08T05:46:32;3.90;;;3.47;;
40621;SDS011;26324;52.040;11.528;2023-07-08T05:48:59;3.95;;;3.35;;
40621;SDS011;26324;52.040;11.528;2023-07-08T05:51:28;3.97;;;3.58;;
40621;SDS011;26324;52.040;11.528;2023-07-08T05:53:55;4.65;;;3.13;;
40621;SDS011;26324;52.040;11.528;2023-07-08T05:56:22;5.90;;;3.63;;
40621;SDS011;26324;52.040;11.528;2023-07-08T05:58:50;5.75;;;3.83;;
40621;SDS011;26324;52.040;11.528;2023-07-08T06:01:17;6.70;;;3.88;;
40621;SDS011;26324;52.040;11.528;2023-07-08T06:03:44;4.80;;;3.97;;
40621;SDS011;26324;52.040;11.528;2023-07-08T06:06:12;4.43;;;3.45;;
40621;SDS011;26324;52.040;11.528;2023-07-08T06:08:40;4.38;;;3.70;;
40621;SDS011;26324;52.040;11.528;2023-07-08T06:11:08;4.53;;;3.72;;
40621;SDS011;26324;52.040;11.528;2023-07-08T06:13:35;5.47;;;3.50;;
40621;SDS011;26324;52.040;11.528;2023-07-08T06:16:03;6.85;;;4.20;;
40621;SDS011;26324;52.040;11.528;2023-07-08T06:18:30;4.65;;;4.13;;
40621;SDS011;26324;52.040;11.528;2023-07-08T06:20:58;5.03;;;4.00;;
40621;SDS011;26324;52.040;11.528;2023-07-08T06:23:26;6.20;;;3.78;;
40621;SDS011;26324;52.040;11.528;2023-07-08T06:25:53;4.13;;;3.72;;
40621;SDS011;26324;52.040;11.528;2023-07-08T06:28:21;4.47;;;4.07;;
40621;SDS011;26324;52.040;11.528;2023-07-08T06:30:49;5.10;;;4.20;;
40621;SDS011;26324;52.040;11.528;2023-07-08T06:33:16;5.65;;;3.65;;
40621;SDS011;26324;52.040;11.528;2023-07-08T06:35:44;4.55;;;3.55;;
40621;SDS011;26324;52.040;11.528;2023-07-08T06:38:12;5.22;;;4.18;;
40621;SDS011;26324;52.040;11.528;2023-07-08T06:40:39;5.35;;;4.03;;
40621;SDS011;26324;52.040;11.528;2023-07-08T06:43:07;4.47;;;4.00;;
40621;SDS011;26324;52.040;11.528;2023-07-08T06:45:39;4.95;;;4.18;;
40621;SDS011;26324;52.040;11.528;2023-07-08T06:48:07;5.10;;;4.60;;
40621;SDS011;26324;52.040;11.528;2023-07-08T06:50:35;5.40;;;4.43;;
40621;SDS011;26324;52.040;11.528;2023-07-08T06:53:02;5.70;;;4.40;;
40621;SDS011;26324;52.040;11.528;2023-07-08T06:55:30;6.07;;;4.57;;
40621;SDS011;26324;52.040;11.528;2023-07-08T06:57:57;4.85;;;3.60;;
40621;SDS011;26324;52.040;11.528;2023-07-08T07:00:24;4.82;;;4.03;;
40621;SDS011;26324;52.040;11.528;2023-07-08T07:02:52;4.82;;;3.97;;
40621;SDS011;26324;52.040;11.528;2023-07-08T07:05:19;4.78;;;4.05;;
40621;SDS011;26324;52.040;11.528;2023-07-08T07:07:49;4.85;;;4.00;;
40621;SDS011;26324;52.040;11.528;2023-07-08T07:10:16;5.10;;;4.20;;
40621;SDS011;26324;52.040;11.528;2023-07-08T07:12:44;5.93;;;4.13;;
40621;SDS011;26324;52.040;11.528;2023-07-08T07:15:11;6.15;;;4.38;;
40621;SDS011;26324;52.040;11.528;2023-07-08T07:17:39;5.45;;;4.25;;
40621;SDS011;26324;52.040;11.528;2023-07-08T07:20:06;4.40;;;3.95;;
40621;SDS011;26324;52.040;11.528;2023-07-08T07:22:35;5.63;;;4.20;;
40621;SDS011;26324;52.040;11.528;2023-07-08T07:25:03;5.70;;;3.90;;
40621;SDS011;26324;52.040;11.528;2023-07-08T07:27:30;4.15;;;3.75;;
40621;SDS011;26324;52.040;11.528;2023-07-08T07:29:58;5.28;;;4.15;;
40621;SDS011;26324;52.040;11.528;2023-07-08T07:32:26;6.13;;;4.40;;
40621;SDS011;26324;52.040;11.528;2023-07-08T07:34:56;6.05;;;4.03;;
40621;SDS011;26324;52.040;11.528;2023-07-08T07:39:52;5.05;;;4.30;;
40621;SDS011;26324;52.040;11.528;2023-07-08T07:42:19;5.65;;;4.55;;
40621;SDS011;26324;52.040;11.528;2023-07-08T07:44:47;5.18;;;3.90;;
40621;SDS011;26324;52.040;11.528;2023-07-08T07:47:14;5.10;;;4.50;;
40621;SDS011;26324;52.040;11.528;2023-07-08T07:49:41;6.45;;;4.13;;
40621;SDS011;26324;52.040;11.528;2023-07-08T07:52:09;4.53;;;3.90;;
40621;SDS011;26324;52.040;11.528;2023-07-08T07:54:38;4.63;;;4.05;;
40621;SDS011;26324;52.040;11.528;2023-07-08T07:59:33;4.72;;;3.63;;
40621;SDS011;26324;52.040;11.528;2023-07-08T08:02:00;4.65;;;3.35;;
40621;SDS011;26324;52.040;11.528;2023-07-08T08:04:28;5.53;;;3.67;;
40621;SDS011;26324;52.040;11.528;2023-07-08T08:06:55;5.28;;;4.50;;
40621;SDS011;26324;52.040;11.528;2023-07-08T08:09:22;4.65;;;3.65;;
40621;SDS011;26324;52.040;11.528;2023-07-08T08:11:50;6.68;;;3.55;;
40621;SDS011;26324;52.040;11.528;2023-07-08T08:14:18;4.32;;;3.42;;
40621;SDS011;26324;52.040;11.528;2023-07-08T08:16:46;3.90;;;3.50;;
40621;SDS011;26324;52.040;11.528;2023-07-08T08:19:13;4.32;;;3.92;;
40621;SDS011;26324;52.040;11.528;2023-07-08T08:21:40;5.43;;;3.88;;
40621;SDS011;26324;52.040;11.528;2023-07-08T08:24:08;3.70;;;3.30;;
40621;SDS011;26324;52.040;11.528;2023-07-08T08:26:35;5.03;;;3.72;;
40621;SDS011;26324;52.040;11.528;2023-07-08T08:29:02;4.47;;;3.13;;
40621;SDS011;26324;52.040;11.528;2023-07-08T08:31:30;3.50;;;3.20;;
40621;SDS011;26324;52.040;11.528;2023-07-08T08:34:00;4.15;;;2.97;;
40621;SDS011;26324;52.040;11.528;2023-07-08T08:36:28;4.20;;;3.00;;
40621;SDS011;26324;52.040;11.528;2023-07-08T08:38:55;5.28;;;3.40;;
40621;SDS011;26324;52.040;11.528;2023-07-08T08:41:30;5.35;;;3.88;;
40621;SDS011;26324;52.040;11.528;2023-07-08T08:44:00;4.75;;;3.75;;
40621;SDS011;26324;52.040;11.528;2023-07-08T08:46:34;7.35;;;3.88;;
40621;SDS011;26324;52.040;11.528;2023-07-08T08:49:39;4.68;;;3.67;;
40621;SDS011;26324;52.040;11.528;2023-07-08T08:52:10;5.72;;;3.58;;
40621;SDS011;26324;52.040;11.528;2023-07-08T08:54:37;3.85;;;3.33;;
40621;SDS011;26324;52.040;11.528;2023-07-08T08:57:12;5.53;;;3.50;;
40621;SDS011;26324;52.040;11.528;2023-07-08T08:59:56;4.60;;;3.67;;
40621;SDS011;26324;52.040;11.528;2023-07-08T09:05:20;5.47;;;4.20;;
40621;SDS011;26324;52.040;11.528;2023-07-08T09:13:25;5.88;;;3.50;;
40621;SDS011;26324;52.040;11.528;2023-07-08T09:16:10;6.05;;;3.50;;
40621;SDS011;26324;52.040;11.528;2023-07-08T09:18:55;5.35;;;3.97;;
40621;SDS011;26324;52.040;11.528;2023-07-08T09:21:28;4.20;;;3.53;;
40621;SDS011;26324;52.040;11.528;2023-07-08T09:24:01;4.82;;;3.72;;
40621;SDS011;26324;52.040;11.528;2023-07-08T09:26:35;4.38;;;3.90;;
40621;SDS011;26324;52.040;11.528;2023-07-08T09:29:07;4.53;;;3.38;;
40621;SDS011;26324;52.040;11.528;2023-07-08T09:31:37;5.70;;;3.50;;
40621;SDS011;26324;52.040;11.528;2023-07-08T09:34:11;3.55;;;3.25;;
40621;SDS011;26324;52.040;11.528;2023-07-08T09:36:41;4.43;;;3.45;;
40621;SDS011;26324;52.040;11.528;2023-07-08T09:39:13;4.15;;;3.55;;
40621;SDS011;26324;52.040;11.528;2023-07-08T09:41:44;4.10;;;3.65;;
40621;SDS011;26324;52.040;11.528;2023-07-08T09:44:23;3.92;;;3.53;;
40621;SDS011;26324;52.040;11.528;2023-07-08T09:46:57;4.57;;;4.00;;
40621;SDS011;26324;52.040;11.528;2023-07-08T09:49:27;4.80;;;3.30;;
40621;SDS011;26324;52.040;11.528;2023-07-08T09:52:02;4.35;;;3.22;;
40621;SDS011;26324;52.040;11.528;2023-07-08T09:54:31;3.80;;;3.30;;
40621;SDS011;26324;52.040;11.528;2023-07-08T09:57:00;3.80;;;3.40;;
40621;SDS011;26324;52.040;11.528;2023-07-08T09:59:43;3.90;;;3.60;;
40621;SDS011;26324;52.040;11.528;2023-07-08T10:02:27;4.63;;;3.80;;
40621;SDS011;26324;52.040;11.528;2023-07-08T10:05:20;4.05;;;3.30;;
40621;SDS011;26324;52.040;11.528;2023-07-08T10:07:51;7.00;;;3.22;;
40621;SDS011;26324;52.040;11.528;2023-07-08T10:10:28;4.50;;;3.70;;
40621;SDS011;26324;52.040;11.528;2023-07-08T10:18:52;3.55;;;3.25;;
40621;SDS011;26324;52.040;11.528;2023-07-08T10:21:26;4.10;;;3.35;;
40621;SDS011;26324;52.040;11.528;2023-07-08T10:27:17;4.45;;;3.50;;
40621;SDS011;26324;52.040;11.528;2023-07-08T10:35:36;4.68;;;3.28;;
40621;SDS011;26324;52.040;11.528;2023-07-08T10:38:26;4.00;;;2.97;;
40621;SDS011;26324;52.040;11.528;2023-07-08T10:40:59;3.72;;;2.88;;
40621;SDS011;26324;52.040;11.528;2023-07-08T10:46:40;3.75;;;2.70;;
40621;SDS011;26324;52.040;11.528;2023-07-08T10:51:58;3.45;;;2.88;;
40621;SDS011;26324;52.040;11.528;2023-07-08T11:01:15;4.28;;;2.80;;
40621;SDS011;26324;52.040;11.528;2023-07-08T11:04:06;6.03;;;2.63;;
40621;SDS011;26324;52.040;11.528;2023-07-08T11:06:46;3.78;;;3.20;;
40621;SDS011;26324;52.040;11.528;2023-07-08T11:09:28;4.13;;;3.00;;
40621;SDS011;26324;52.040;11.528;2023-07-08T11:12:05;4.20;;;3.80;;
40621;SDS011;26324;52.040;11.528;2023-07-08T11:14:49;6.75;;;4.35;;
40621;SDS011;26324;52.040;11.528;2023-07-08T11:17:27;5.35;;;4.40;;
40621;SDS011;26324;52.040;11.528;2023-07-08T11:20:17;5.65;;;5.00;;
40621;SDS011;26324;52.040;11.528;2023-07-08T11:22:52;6.53;;;5.93;;
40621;SDS011;26324;52.040;11.528;2023-07-08T11:25:25;8.32;;;7.50;;
40621;SDS011;26324;52.040;11.528;2023-07-08T11:27:55;14.18;;;12.77;;
40621;SDS011;26324;52.040;11.528;2023-07-08T11:30:24;11.55;;;10.35;;
40621;SDS011;26324;52.040;11.528;2023-07-08T11:33:00;13.65;;;10.93;;
40621;SDS011;26324;52.040;11.528;2023-07-08T11:35:41;9.32;;;8.05;;
40621;SDS011;26324;52.040;11.528;2023-07-08T11:38:19;8.18;;;5.60;;
40621;SDS011;26324;52.040;11.528;2023-07-08T11:40:53;6.72;;;5.38;;
40621;SDS011;26324;52.040;11.528;2023-07-08T11:43:23;5.75;;;5.15;;
40621;SDS011;26324;52.040;11.528;2023-07-08T11:45:54;4.97;;;3.70;;
40621;SDS011;26324;52.040;11.528;2023-07-08T11:48:25;4.50;;;3.63;;
40621;SDS011;26324;52.040;11.528;2023-07-08T11:50:59;3.90;;;3.30;;
40621;SDS011;26324;52.040;11.528;2023-07-08T11:53:36;4.35;;;2.95;;
40621;SDS011;26324;52.040;11.528;2023-07-08T11:56:22;3.00;;;2.70;;
40621;SDS011;26324;52.040;11.528;2023-07-08T12:04:23;2.92;;;2.03;;
40621;SDS011;26324;52.040;11.528;2023-07-08T12:09:41;3.17;;;2.13;;
40621;SDS011;26324;52.040;11.528;2023-07-08T12:12:20;3.10;;;2.55;;
40621;SDS011;26324;52.040;11.528;2023-07-08T12:14:53;5.72;;;2.70;;
40621;SDS011;26324;52.040;11.528;2023-07-08T12:17:28;2.53;;;2.10;;
40621;SDS011;26324;52.040;11.528;2023-07-08T12:19:58;2.95;;;2.75;;
40621;SDS011;26324;52.040;11.528;2023-07-08T12:22:30;2.83;;;2.30;;
40621;SDS011;26324;52.040;11.528;2023-07-08T12:25:00;4.88;;;2.67;;
40621;SDS011;26324;52.040;11.528;2023-07-08T12:27:32;2.78;;;2.40;;
40621;SDS011;26324;52.040;11.528;2023-07-08T12:30:00;3.42;;;2.53;;
40621;SDS011;26324;52.040;11.528;2023-07-08T12:32:29;3.50;;;2.60;;
40621;SDS011;26324;52.040;11.528;2023-07-08T12:34:57;6.28;;;2.70;;
40621;SDS011;26324;52.040;11.528;2023-07-08T12:37:25;3.13;;;2.67;;
40621;SDS011;26324;52.040;11.528;2023-07-08T12:42:22;3.00;;;2.47;;
40621;SDS011;26324;52.040;11.528;2023-07-08T12:47:19;3.92;;;2.80;;
40621;SDS011;26324;52.040;11.528;2023-07-08T12:49:47;3.38;;;2.53;;
40621;SDS011;26324;52.040;11.528;2023-07-08T12:52:22;3.13;;;2.53;;
40621;SDS011;26324;52.040;11.528;2023-07-08T12:54:51;2.67;;;2.22;;
40621;SDS011;26324;52.040;11.528;2023-07-08T12:57:18;3.50;;;2.40;;
40621;SDS011;26324;52.040;11.528;2023-07-08T12:59:46;4.72;;;2.80;;
40621;SDS011;26324;52.040;11.528;2023-07-08T13:04:44;3.95;;;3.10;;
40621;SDS011;26324;52.040;11.528;2023-07-08T13:10:05;3.15;;;2.55;;
40621;SDS011;26324;52.040;11.528;2023-07-08T13:12:36;4.90;;;2.50;;
40621;SDS011;26324;52.040;11.528;2023-07-08T13:15:12;5.68;;;2.78;;
40621;SDS011;26324;52.040;11.528;2023-07-08T13:17:44;4.57;;;3.17;;
40621;SDS011;26324;52.040;11.528;2023-07-08T13:20:15;2.58;;;2.28;;
40621;SDS011;26324;52.040;11.528;2023-07-08T13:22:46;3.58;;;2.42;;
40621;SDS011;26324;52.040;11.528;2023-07-08T13:25:19;3.22;;;2.67;;
40621;SDS011;26324;52.040;11.528;2023-07-08T13:28:00;4.30;;;2.72;;
40621;SDS011;26324;52.040;11.528;2023-07-08T13:30:30;3.38;;;3.00;;
40621;SDS011;26324;52.040;11.528;2023-07-08T13:32:59;3.90;;;2.60;;
40621;SDS011;26324;52.040;11.528;2023-07-08T13:35:37;3.22;;;2.92;;
40621;SDS011;26324;52.040;11.528;2023-07-08T13:38:06;3.45;;;2.85;;
40621;SDS011;26324;52.040;11.528;2023-07-08T13:40:45;3.60;;;2.90;;
40621;SDS011;26324;52.040;11.528;2023-07-08T13:43:14;3.08;;;2.67;;
40621;SDS011;26324;52.040;11.528;2023-07-08T13:45:43;3.40;;;2.83;;
40621;SDS011;26324;52.040;11.528;2023-07-08T13:48:18;3.33;;;2.90;;
40621;SDS011;26324;52.040;11.528;2023-07-08T13:51:17;3.03;;;2.60;;
40621;SDS011;26324;52.040;11.528;2023-07-08T13:53:48;4.63;;;3.10;;
40621;SDS011;26324;52.040;11.528;2023-07-08T13:56:22;4.00;;;3.20;;
40621;SDS011;26324;52.040;11.528;2023-07-08T13:59:04;3.10;;;2.60;;
40621;SDS011;26324;52.040;11.528;2023-07-08T14:01:35;3.45;;;3.03;;
40621;SDS011;26324;52.040;11.528;2023-07-08T14:04:05;4.15;;;3.40;;
40621;SDS011;26324;52.040;11.528;2023-07-08T14:06:37;3.45;;;2.80;;
40621;SDS011;26324;52.040;11.528;2023-07-08T14:09:27;3.70;;;3.30;;
40621;SDS011;26324;52.040;11.528;2023-07-08T14:11:53;4.13;;;3.75;;
40621;SDS011;26324;52.040;11.528;2023-07-08T14:14:21;4.80;;;3.45;;
40621;SDS011;26324;52.040;11.528;2023-07-08T14:16:49;3.42;;;2.65;;
40621;SDS011;26324;52.040;11.528;2023-07-08T14:19:21;3.75;;;3.35;;
40621;SDS011;26324;52.040;11.528;2023-07-08T14:21:55;4.50;;;3.15;;
40621;SDS011;26324;52.040;11.528;2023-07-08T14:24:24;4.00;;;3.17;;
40621;SDS011;26324;52.040;11.528;2023-07-08T14:26:52;3.72;;;3.40;;
40621;SDS011;26324;52.040;11.528;2023-07-08T14:29:20;3.25;;;2.92;;
40621;SDS011;26324;52.040;11.528;2023-07-08T14:31:49;4.43;;;3.60;;
40621;SDS011;26324;52.040;11.528;2023-07-08T14:34:20;4.00;;;3.60;;
40621;SDS011;26324;52.040;11.528;2023-07-08T14:36:51;4.65;;;3.30;;
40621;SDS011;26324;52.040;11.528;2023-07-08T14:39:19;5.80;;;3.83;;
40621;SDS011;26324;52.040;11.528;2023-07-08T14:41:48;3.17;;;2.90;;
40621;SDS011;26324;52.040;11.528;2023-07-08T14:44:24;4.78;;;3.63;;
40621;SDS011;26324;52.040;11.528;2023-07-08T14:46:57;3.90;;;3.00;;
40621;SDS011;26324;52.040;11.528;2023-07-08T14:49:25;3.88;;;3.47;;
40621;SDS011;26324;52.040;11.528;2023-07-08T14:51:54;4.07;;;3.70;;
40621;SDS011;26324;52.040;11.528;2023-07-08T14:54:21;4.40;;;3.80;;
40621;SDS011;26324;52.040;11.528;2023-07-08T14:56:49;4.00;;;3.63;;
40621;SDS011;26324;52.040;11.528;2023-07-08T14:59:17;4.53;;;3.33;;
40621;SDS011;26324;52.040;11.528;2023-07-08T15:01:47;3.30;;;3.00;;
40621;SDS011;26324;52.040;11.528;2023-07-08T15:04:16;3.90;;;3.15;;
40621;SDS011;26324;52.040;11.528;2023-07-08T15:06:45;4.20;;;3.85;;
40621;SDS011;26324;52.040;11.528;2023-07-08T15:09:13;4.03;;;3.72;;
40621;SDS011;26324;52.040;11.528;2023-07-08T15:11:41;4.38;;;3.97;;
40621;SDS011;26324;52.040;11.528;2023-07-08T15:14:22;3.63;;;3.30;;
40621;SDS011;26324;52.040;11.528;2023-07-08T15:16:53;4.10;;;3.80;;
40621;SDS011;26324;52.040;11.528;2023-07-08T15:19:21;3.60;;;3.30;;
40621;SDS011;26324;52.040;11.528;2023-07-08T15:21:51;3.85;;;3.13;;
40621;SDS011;26324;52.040;11.528;2023-07-08T15:24:18;3.95;;;3.65;;
40621;SDS011;26324;52.040;11.528;2023-07-08T15:29:21;3.45;;;3.15;;
40621;SDS011;26324;52.040;11.528;2023-07-08T15:31:50;3.20;;;2.85;;
40621;SDS011;26324;52.040;11.528;2023-07-08T15:34:19;3.67;;;3.13;;
40621;SDS011;26324;52.040;11.528;2023-07-08T15:36:48;4.47;;;4.07;;
40621;SDS011;26324;52.040;11.528;2023-07-08T15:39:16;4.43;;;3.60;;
40621;SDS011;26324;52.040;11.528;2023-07-08T15:41:44;5.40;;;3.40;;
40621;SDS011;26324;52.040;11.528;2023-07-08T15:44:12;5.13;;;3.97;;
40621;SDS011;26324;52.040;11.528;2023-07-08T15:46:45;3.40;;;3.10;;
40621;SDS011;26324;52.040;11.528;2023-07-08T15:49:16;5.20;;;3.10;;
40621;SDS011;26324;52.040;11.528;2023-07-08T15:51:46;4.85;;;3.58;;
40621;SDS011;26324;52.040;11.528;2023-07-08T15:54:19;4.72;;;4.15;;
40621;SDS011;26324;52.040;11.528;2023-07-08T15:56:47;4.95;;;4.55;;
40621;SDS011;26324;52.040;11.528;2023-07-08T15:59:19;5.03;;;3.70;;
40621;SDS011;26324;52.040;11.528;2023-07-08T16:01:51;4.07;;;3.60;;
40621;SDS011;26324;52.040;11.528;2023-07-08T16:04:23;3.80;;;3.50;;
40621;SDS011;26324;52.040;11.528;2023-07-08T16:06:53;4.03;;;3.72;;
40621;SDS011;26324;52.040;11.528;2023-07-08T16:09:21;4.15;;;3.78;;
40621;SDS011;26324;52.040;11.528;2023-07-08T16:11:49;5.88;;;3.80;;
40621;SDS011;26324;52.040;11.528;2023-07-08T16:14:18;4.20;;;3.90;;